sensor_id;sensor_type;location;lat;lon;timestamp;temperature;humidity
15257;DHT22;7731;50.720;6.912;2022-07-23T00:01:09;20.50;1.00
15257;DHT22;7731;50.720;6.912;2022-07-23T00:03:40;20.40;6.20
15257;DHT22;7731;50.720;6.912;2022-07-23T00:06:10;20.50;2.30
15257;DHT22;7731;50.720;6.912;2022-07-23T00:08:40;20.30;26.40
15257;DHT22;7731;50.720;6.912;2022-07-23T00:11:11;20.20;40.60
15257;DHT22;7731;50.720;6.912;2022-07-23T00:13:44;20.10;51.50
15257;DHT22;7731;50.720;6.912;2022-07-23T00:16:14;20.00;74.70
15257;DHT22;7731;50.720;6.912;2022-07-23T00:18:45;19.90;91.00
15257;DHT22;7731;50.720;6.912;2022-07-23T00:21:15;19.90;94.00
15257;DHT22;7731;50.720;6.912;2022-07-23T00:23:45;20.10;58.50
15257;DHT22;7731;50.720;6.912;2022-07-23T00:26:15;20.10;66.70
15257;DHT22;7731;50.720;6.912;2022-07-23T00:28:48;20.20;59.10
15257;DHT22;7731;50.720;6.912;2022-07-23T00:31:19;20.10;68.00
15257;DHT22;7731;50.720;6.912;2022-07-23T00:33:49;20.00;93.80
15257;DHT22;7731;50.720;6.912;2022-07-23T00:36:23;19.80;99.90
15257;DHT22;7731;50.720;6.912;2022-07-23T00:38:54;19.80;99.90
15257;DHT22;7731;50.720;6.912;2022-07-23T00:41:24;19.70;99.90
15257;DHT22;7731;50.720;6.912;2022-07-23T00:44:14;19.70;99.90
15257;DHT22;7731;50.720;6.912;2022-07-23T00:46:46;19.60;99.90
15257;DHT22;7731;50.720;6.912;2022-07-23T00:49:20;19.60;99.90
15257;DHT22;7731;50.720;6.912;2022-07-23T00:51:51;19.70;99.90
15257;DHT22;7731;50.720;6.912;2022-07-23T00:54:23;19.90;99.90
15257;DHT22;7731;50.720;6.912;2022-07-23T00:56:56;19.90;94.20
15257;DHT22;7731;50.720;6.912;2022-07-23T00:59:29;19.90;99.90
15257;DHT22;7731;50.720;6.912;2022-07-23T01:01:59;19.90;99.90
15257;DHT22;7731;50.720;6.912;2022-07-23T01:04:29;19.90;99.90
15257;DHT22;7731;50.720;6.912;2022-07-23T01:07:00;20.00;99.90
15257;DHT22;7731;50.720;6.912;2022-07-23T01:09:31;19.90;99.90
15257;DHT22;7731;50.720;6.912;2022-07-23T01:12:02;19.90;99.90
15257;DHT22;7731;50.720;6.912;2022-07-23T01:14:35;19.80;99.90
15257;DHT22;7731;50.720;6.912;2022-07-23T01:17:05;19.80;99.90
15257;DHT22;7731;50.720;6.912;2022-07-23T01:19:36;19.70;99.90
15257;DHT22;7731;50.720;6.912;2022-07-23T01:22:06;19.60;99.90
15257;DHT22;7731;50.720;6.912;2022-07-23T01:24:40;19.60;99.90
15257;DHT22;7731;50.720;6.912;2022-07-23T01:27:11;19.50;99.90
15257;DHT22;7731;50.720;6.912;2022-07-23T01:29:42;19.30;99.90
15257;DHT22;7731;50.720;6.912;2022-07-23T01:32:12;19.20;99.90
15257;DHT22;7731;50.720;6.912;2022-07-23T01:34:42;19.30;99.90
15257;DHT22;7731;50.720;6.912;2022-07-23T01:37:12;19.30;99.90
15257;DHT22;7731;50.720;6.912;2022-07-23T01:39:45;19.20;99.90
15257;DHT22;7731;50.720;6.912;2022-07-23T01:42:15;19.10;99.90
15257;DHT22;7731;50.720;6.912;2022-07-23T01:44:46;19.10;99.90
15257;DHT22;7731;50.720;6.912;2022-07-23T01:47:16;19.10;99.90
15257;DHT22;7731;50.720;6.912;2022-07-23T01:49:47;19.00;99.90
15257;DHT22;7731;50.720;6.912;2022-07-23T01:52:17;19.20;99.90
15257;DHT22;7731;50.720;6.912;2022-07-23T01:54:50;19.10;99.90
15257;DHT22;7731;50.720;6.912;2022-07-23T01:57:21;19.30;99.90
15257;DHT22;7731;50.720;6.912;2022-07-23T01:59:51;19.20;99.90
15257;DHT22;7731;50.720;6.912;2022-07-23T02:02:21;19.00;99.90
15257;DHT22;7731;50.720;6.912;2022-07-23T02:04:52;18.90;99.90
15257;DHT22;7731;50.720;6.912;2022-07-23T02:07:22;18.80;99.90
15257;DHT22;7731;50.720;6.912;2022-07-23T02:09:55;18.80;99.90
15257;DHT22;7731;50.720;6.912;2022-07-23T02:12:25;18.70;99.90
15257;DHT22;7731;50.720;6.912;2022-07-23T02:14:55;18.80;99.90
15257;DHT22;7731;50.720;6.912;2022-07-23T02:17:26;19.10;99.90
15257;DHT22;7731;50.720;6.912;2022-07-23T02:19:56;19.20;99.90
15257;DHT22;7731;50.720;6.912;2022-07-23T02:22:26;19.20;99.90
15257;DHT22;7731;50.720;6.912;2022-07-23T02:24:59;19.20;99.90
15257;DHT22;7731;50.720;6.912;2022-07-23T02:27:29;19.00;99.90
15257;DHT22;7731;50.720;6.912;2022-07-23T02:30:00;18.90;99.90
15257;DHT22;7731;50.720;6.912;2022-07-23T02:32:30;18.80;99.90
15257;DHT22;7731;50.720;6.912;2022-07-23T02:35:00;18.70;99.90
15257;DHT22;7731;50.720;6.912;2022-07-23T02:37:31;18.50;99.90
15257;DHT22;7731;50.720;6.912;2022-07-23T02:40:05;18.40;99.90
15257;DHT22;7731;50.720;6.912;2022-07-23T02:42:36;18.40;99.90
15257;DHT22;7731;50.720;6.912;2022-07-23T02:45:07;18.40;99.90
15257;DHT22;7731;50.720;6.912;2022-07-23T02:47:38;18.40;99.90
15257;DHT22;7731;50.720;6.912;2022-07-23T02:50:09;18.40;99.90
15257;DHT22;7731;50.720;6.912;2022-07-23T02:52:39;18.40;99.90
15257;DHT22;7731;50.720;6.912;2022-07-23T02:55:12;18.20;99.90
15257;DHT22;7731;50.720;6.912;2022-07-23T02:57:42;18.20;99.90
15257;DHT22;7731;50.720;6.912;2022-07-23T03:00:13;18.30;99.90
15257;DHT22;7731;50.720;6.912;2022-07-23T03:02:44;18.30;99.90
15257;DHT22;7731;50.720;6.912;2022-07-23T03:05:14;18.30;99.90
15257;DHT22;7731;50.720;6.912;2022-07-23T03:07:44;18.40;99.90
15257;DHT22;7731;50.720;6.912;2022-07-23T03:10:17;18.40;99.90
15257;DHT22;7731;50.720;6.912;2022-07-23T03:12:47;18.20;99.90
15257;DHT22;7731;50.720;6.912;2022-07-23T03:15:18;18.10;99.90
15257;DHT22;7731;50.720;6.912;2022-07-23T03:17:48;18.00;99.90
15257;DHT22;7731;50.720;6.912;2022-07-23T03:20:19;17.90;99.90
15257;DHT22;7731;50.720;6.912;2022-07-23T03:22:49;17.90;99.90
15257;DHT22;7731;50.720;6.912;2022-07-23T03:25:22;17.80;99.90
15257;DHT22;7731;50.720;6.912;2022-07-23T03:27:53;17.80;99.90
15257;DHT22;7731;50.720;6.912;2022-07-23T03:30:23;17.80;99.90
15257;DHT22;7731;50.720;6.912;2022-07-23T03:32:53;17.70;99.90
15257;DHT22;7731;50.720;6.912;2022-07-23T03:35:23;17.60;99.90
15257;DHT22;7731;50.720;6.912;2022-07-23T03:37:54;17.60;99.90
15257;DHT22;7731;50.720;6.912;2022-07-23T03:40:27;17.60;99.90
15257;DHT22;7731;50.720;6.912;2022-07-23T03:42:57;17.60;99.90
15257;DHT22;7731;50.720;6.912;2022-07-23T03:45:28;17.50;99.90
15257;DHT22;7731;50.720;6.912;2022-07-23T03:47:59;17.50;99.90
15257;DHT22;7731;50.720;6.912;2022-07-23T03:50:29;17.40;99.90
15257;DHT22;7731;50.720;6.912;2022-07-23T03:53:01;17.30;99.90
15257;DHT22;7731;50.720;6.912;2022-07-23T03:55:34;17.40;99.90
15257;DHT22;7731;50.720;6.912;2022-07-23T03:58:04;17.40;99.90
15257;DHT22;7731;50.720;6.912;2022-07-23T04:00:34;17.30;99.90
15257;DHT22;7731;50.720;6.912;2022-07-23T04:03:05;17.20;99.90
15257;DHT22;7731;50.720;6.912;2022-07-23T04:05:35;17.20;99.90
15257;DHT22;7731;50.720;6.912;2022-07-23T04:08:05;17.30;99.90
15257;DHT22;7731;50.720;6.912;2022-07-23T04:10:38;17.20;99.90
15257;DHT22;7731;50.720;6.912;2022-07-23T04:13:08;17.10;99.90
15257;DHT22;7731;50.720;6.912;2022-07-23T04:15:39;17.00;99.90
15257;DHT22;7731;50.720;6.912;2022-07-23T04:18:09;16.90;99.90
15257;DHT22;7731;50.720;6.912;2022-07-23T04:20:39;16.90;99.90
15257;DHT22;7731;50.720;6.912;2022-07-23T04:23:10;16.90;99.90
15257;DHT22;7731;50.720;6.912;2022-07-23T04:25:43;17.00;99.90
15257;DHT22;7731;50.720;6.912;2022-07-23T04:28:13;17.00;99.90
15257;DHT22;7731;50.720;6.912;2022-07-23T04:30:44;17.10;99.90
15257;DHT22;7731;50.720;6.912;2022-07-23T04:33:14;17.10;99.90
15257;DHT22;7731;50.720;6.912;2022-07-23T04:35:44;17.30;99.90
15257;DHT22;7731;50.720;6.912;2022-07-23T04:38:15;17.30;99.90
15257;DHT22;7731;50.720;6.912;2022-07-23T04:40:48;17.30;99.90
15257;DHT22;7731;50.720;6.912;2022-07-23T04:43:18;17.40;99.90
15257;DHT22;7731;50.720;6.912;2022-07-23T04:45:49;17.50;99.90
15257;DHT22;7731;50.720;6.912;2022-07-23T04:48:19;17.60;99.90
15257;DHT22;7731;50.720;6.912;2022-07-23T04:50:50;17.70;99.90
15257;DHT22;7731;50.720;6.912;2022-07-23T04:53:20;17.70;99.90
15257;DHT22;7731;50.720;6.912;2022-07-23T04:55:53;17.90;99.90
15257;DHT22;7731;50.720;6.912;2022-07-23T04:58:24;18.00;99.90
15257;DHT22;7731;50.720;6.912;2022-07-23T05:00:54;18.00;99.90
15257;DHT22;7731;50.720;6.912;2022-07-23T05:03:25;18.00;99.90
15257;DHT22;7731;50.720;6.912;2022-07-23T05:05:55;18.10;99.90
15257;DHT22;7731;50.720;6.912;2022-07-23T05:08:25;18.00;99.90
15257;DHT22;7731;50.720;6.912;2022-07-23T05:10:58;18.00;99.90
15257;DHT22;7731;50.720;6.912;2022-07-23T05:13:28;18.00;99.90
15257;DHT22;7731;50.720;6.912;2022-07-23T05:15:59;18.10;99.90
15257;DHT22;7731;50.720;6.912;2022-07-23T05:18:29;18.30;99.90
15257;DHT22;7731;50.720;6.912;2022-07-23T05:20:59;18.60;99.90
15257;DHT22;7731;50.720;6.912;2022-07-23T05:23:30;18.90;99.90
15257;DHT22;7731;50.720;6.912;2022-07-23T05:26:02;18.90;99.90
15257;DHT22;7731;50.720;6.912;2022-07-23T05:28:33;19.20;99.90
15257;DHT22;7731;50.720;6.912;2022-07-23T05:31:03;19.40;99.90
15257;DHT22;7731;50.720;6.912;2022-07-23T05:33:33;19.20;99.90
15257;DHT22;7731;50.720;6.912;2022-07-23T05:36:05;19.40;99.90
15257;DHT22;7731;50.720;6.912;2022-07-23T05:38:35;19.60;99.90
15257;DHT22;7731;50.720;6.912;2022-07-23T05:41:08;20.80;99.90
15257;DHT22;7731;50.720;6.912;2022-07-23T05:43:39;21.40;99.40
15257;DHT22;7731;50.720;6.912;2022-07-23T05:46:09;21.50;95.10
15257;DHT22;7731;50.720;6.912;2022-07-23T05:48:39;21.80;46.60
15257;DHT22;7731;50.720;6.912;2022-07-23T05:51:10;22.00;24.00
15257;DHT22;7731;50.720;6.912;2022-07-23T05:53:40;21.70;51.40
15257;DHT22;7731;50.720;6.912;2022-07-23T05:56:13;21.40;91.20
15257;DHT22;7731;50.720;6.912;2022-07-23T05:58:43;21.40;68.60
15257;DHT22;7731;50.720;6.912;2022-07-23T06:01:14;21.00;99.90
15257;DHT22;7731;50.720;6.912;2022-07-23T06:03:44;20.60;99.90
15257;DHT22;7731;50.720;6.912;2022-07-23T06:06:14;20.40;99.90
15257;DHT22;7731;50.720;6.912;2022-07-23T06:08:45;20.30;99.90
15257;DHT22;7731;50.720;6.912;2022-07-23T06:11:17;20.00;99.90
15257;DHT22;7731;50.720;6.912;2022-07-23T06:13:48;19.80;99.90
15257;DHT22;7731;50.720;6.912;2022-07-23T06:16:18;19.80;99.90
15257;DHT22;7731;50.720;6.912;2022-07-23T06:18:48;20.40;99.90
15257;DHT22;7731;50.720;6.912;2022-07-23T06:21:19;22.00;74.30
15257;DHT22;7731;50.720;6.912;2022-07-23T06:24:09;24.00;1.00
15257;DHT22;7731;50.720;6.912;2022-07-23T06:26:42;26.00;99.90
15257;DHT22;7731;50.720;6.912;2022-07-23T06:29:12;27.40;99.90
15257;DHT22;7731;50.720;6.912;2022-07-23T06:31:43;29.10;1.00
15257;DHT22;7731;50.720;6.912;2022-07-23T06:34:13;29.00;99.90
15257;DHT22;7731;50.720;6.912;2022-07-23T06:36:43;28.30;1.00
15257;DHT22;7731;50.720;6.912;2022-07-23T06:39:14;28.20;1.00
15257;DHT22;7731;50.720;6.912;2022-07-23T06:41:48;29.10;1.00
15257;DHT22;7731;50.720;6.912;2022-07-23T06:44:24;29.90;99.90
15257;DHT22;7731;50.720;6.912;2022-07-23T06:46:55;30.00;14.00
15257;DHT22;7731;50.720;6.912;2022-07-23T06:49:25;28.60;1.00
15257;DHT22;7731;50.720;6.912;2022-07-23T06:51:56;27.70;1.00
15257;DHT22;7731;50.720;6.912;2022-07-23T06:54:26;27.60;1.00
15257;DHT22;7731;50.720;6.912;2022-07-23T06:56:59;29.00;1.00
15257;DHT22;7731;50.720;6.912;2022-07-23T06:59:29;29.50;99.90
15257;DHT22;7731;50.720;6.912;2022-07-23T07:02:00;30.10;1.00
15257;DHT22;7731;50.720;6.912;2022-07-23T07:04:30;30.40;1.00
15257;DHT22;7731;50.720;6.912;2022-07-23T07:07:00;31.30;1.00
15257;DHT22;7731;50.720;6.912;2022-07-23T07:09:30;31.20;1.00
15257;DHT22;7731;50.720;6.912;2022-07-23T07:12:04;29.50;99.90
15257;DHT22;7731;50.720;6.912;2022-07-23T07:14:35;29.30;99.90
15257;DHT22;7731;50.720;6.912;2022-07-23T07:17:05;30.00;99.90
15257;DHT22;7731;50.720;6.912;2022-07-23T07:19:37;31.30;1.00
15257;DHT22;7731;50.720;6.912;2022-07-23T07:22:08;31.50;1.00
15257;DHT22;7731;50.720;6.912;2022-07-23T07:24:38;31.80;99.90
15257;DHT22;7731;50.720;6.912;2022-07-23T07:27:11;31.50;1.00
15257;DHT22;7731;50.720;6.912;2022-07-23T07:29:41;32.30;99.90
15257;DHT22;7731;50.720;6.912;2022-07-23T07:32:11;32.20;99.90
15257;DHT22;7731;50.720;6.912;2022-07-23T07:35:02;30.50;1.00
15257;DHT22;7731;50.720;6.912;2022-07-23T07:37:33;31.10;1.00
15257;DHT22;7731;50.720;6.912;2022-07-23T07:40:04;31.60;99.90
15257;DHT22;7731;50.720;6.912;2022-07-23T07:42:44;30.90;1.00
15257;DHT22;7731;50.720;6.912;2022-07-23T07:45:15;31.10;1.00
15257;DHT22;7731;50.720;6.912;2022-07-23T07:47:45;32.10;99.90
15257;DHT22;7731;50.720;6.912;2022-07-23T07:50:15;31.20;1.00
15257;DHT22;7731;50.720;6.912;2022-07-23T07:52:46;30.70;1.00
15257;DHT22;7731;50.720;6.912;2022-07-23T07:55:17;31.40;1.00
15257;DHT22;7731;50.720;6.912;2022-07-23T07:57:50;32.20;99.90
15257;DHT22;7731;50.720;6.912;2022-07-23T08:00:20;33.00;99.90
15257;DHT22;7731;50.720;6.912;2022-07-23T08:02:51;33.00;99.90
15257;DHT22;7731;50.720;6.912;2022-07-23T08:05:26;32.40;99.90
15257;DHT22;7731;50.720;6.912;2022-07-23T08:07:58;32.80;99.90
15257;DHT22;7731;50.720;6.912;2022-07-23T08:10:29;33.10;99.90
15257;DHT22;7731;50.720;6.912;2022-07-23T08:13:02;32.80;99.90
15257;DHT22;7731;50.720;6.912;2022-07-23T08:15:32;32.00;99.90
15257;DHT22;7731;50.720;6.912;2022-07-23T08:18:03;32.20;99.90
15257;DHT22;7731;50.720;6.912;2022-07-23T08:20:34;30.80;1.00
15257;DHT22;7731;50.720;6.912;2022-07-23T08:23:06;30.70;1.00
15257;DHT22;7731;50.720;6.912;2022-07-23T08:25:38;30.60;1.00
15257;DHT22;7731;50.720;6.912;2022-07-23T08:28:14;29.70;1.00
15257;DHT22;7731;50.720;6.912;2022-07-23T08:30:45;30.50;1.00
15257;DHT22;7731;50.720;6.912;2022-07-23T08:33:16;31.10;1.00
15257;DHT22;7731;50.720;6.912;2022-07-23T08:36:00;30.50;1.00
15257;DHT22;7731;50.720;6.912;2022-07-23T08:38:33;30.30;1.00
15257;DHT22;7731;50.720;6.912;2022-07-23T08:41:03;30.50;1.00
15257;DHT22;7731;50.720;6.912;2022-07-23T08:43:40;31.20;1.00
15257;DHT22;7731;50.720;6.912;2022-07-23T08:46:13;32.60;99.90
15257;DHT22;7731;50.720;6.912;2022-07-23T08:48:48;32.30;99.90
15257;DHT22;7731;50.720;6.912;2022-07-23T08:51:26;31.70;1.00
15257;DHT22;7731;50.720;6.912;2022-07-23T08:53:58;30.90;1.00
15257;DHT22;7731;50.720;6.912;2022-07-23T08:56:32;30.80;1.00
15257;DHT22;7731;50.720;6.912;2022-07-23T08:59:06;31.10;1.00
15257;DHT22;7731;50.720;6.912;2022-07-23T09:01:40;31.90;1.00
15257;DHT22;7731;50.720;6.912;2022-07-23T09:04:14;32.30;1.00
15257;DHT22;7731;50.720;6.912;2022-07-23T09:06:53;32.30;99.90
15257;DHT22;7731;50.720;6.912;2022-07-23T09:09:24;32.70;99.90
15257;DHT22;7731;50.720;6.912;2022-07-23T09:12:04;32.60;99.90
15257;DHT22;7731;50.720;6.912;2022-07-23T09:14:40;32.70;99.90
15257;DHT22;7731;50.720;6.912;2022-07-23T09:17:15;32.10;99.90
15257;DHT22;7731;50.720;6.912;2022-07-23T09:19:46;32.10;99.90
15257;DHT22;7731;50.720;6.912;2022-07-23T09:22:22;32.60;99.90
15257;DHT22;7731;50.720;6.912;2022-07-23T09:25:06;32.60;99.90
15257;DHT22;7731;50.720;6.912;2022-07-23T09:27:54;33.00;99.90
15257;DHT22;7731;50.720;6.912;2022-07-23T09:30:32;33.20;99.90
15257;DHT22;7731;50.720;6.912;2022-07-23T09:33:09;33.20;99.90
15257;DHT22;7731;50.720;6.912;2022-07-23T09:35:46;33.20;99.90
15257;DHT22;7731;50.720;6.912;2022-07-23T09:38:20;33.70;99.90
15257;DHT22;7731;50.720;6.912;2022-07-23T09:41:06;34.00;99.90
15257;DHT22;7731;50.720;6.912;2022-07-23T09:43:37;33.80;99.90
15257;DHT22;7731;50.720;6.912;2022-07-23T09:46:20;34.60;99.90
15257;DHT22;7731;50.720;6.912;2022-07-23T09:48:53;36.40;99.90
15257;DHT22;7731;50.720;6.912;2022-07-23T09:51:26;36.40;99.90
15257;DHT22;7731;50.720;6.912;2022-07-23T09:54:04;34.70;99.90
15257;DHT22;7731;50.720;6.912;2022-07-23T09:56:36;34.10;99.90
15257;DHT22;7731;50.720;6.912;2022-07-23T09:59:07;33.50;99.90
15257;DHT22;7731;50.720;6.912;2022-07-23T10:01:41;32.80;99.90
15257;DHT22;7731;50.720;6.912;2022-07-23T10:04:11;33.00;99.90
15257;DHT22;7731;50.720;6.912;2022-07-23T10:06:44;34.30;99.90
15257;DHT22;7731;50.720;6.912;2022-07-23T10:09:16;33.90;99.90
15257;DHT22;7731;50.720;6.912;2022-07-23T10:11:56;33.40;99.90
15257;DHT22;7731;50.720;6.912;2022-07-23T10:14:32;34.50;99.90
15257;DHT22;7731;50.720;6.912;2022-07-23T10:17:07;33.40;99.90
15257;DHT22;7731;50.720;6.912;2022-07-23T10:19:38;34.40;99.90
15257;DHT22;7731;50.720;6.912;2022-07-23T10:22:11;34.30;99.90
15257;DHT22;7731;50.720;6.912;2022-07-23T10:24:55;35.20;99.90
15257;DHT22;7731;50.720;6.912;2022-07-23T10:28:06;35.60;99.90
15257;DHT22;7731;50.720;6.912;2022-07-23T10:31:00;34.60;99.90
15257;DHT22;7731;50.720;6.912;2022-07-23T10:34:06;34.90;99.90
15257;DHT22;7731;50.720;6.912;2022-07-23T10:36:47;33.10;99.90
15257;DHT22;7731;50.720;6.912;2022-07-23T10:39:25;32.50;99.90
15257;DHT22;7731;50.720;6.912;2022-07-23T10:42:08;32.00;1.00
15257;DHT22;7731;50.720;6.912;2022-07-23T10:44:41;32.90;1.00
15257;DHT22;7731;50.720;6.912;2022-07-23T10:47:21;33.10;99.90
15257;DHT22;7731;50.720;6.912;2022-07-23T10:50:20;31.80;1.00
15257;DHT22;7731;50.720;6.912;2022-07-23T10:53:16;30.50;1.00
15257;DHT22;7731;50.720;6.912;2022-07-23T10:55:50;29.50;1.00
15257;DHT22;7731;50.720;6.912;2022-07-23T10:58:45;29.90;1.00
15257;DHT22;7731;50.720;6.912;2022-07-23T11:01:33;31.30;1.00
15257;DHT22;7731;50.720;6.912;2022-07-23T11:04:05;31.70;1.00
15257;DHT22;7731;50.720;6.912;2022-07-23T11:07:06;32.20;1.00
15257;DHT22;7731;50.720;6.912;2022-07-23T11:09:40;33.40;99.90
15257;DHT22;7731;50.720;6.912;2022-07-23T11:12:34;34.20;99.90
15257;DHT22;7731;50.720;6.912;2022-07-23T11:15:10;32.20;99.90
15257;DHT22;7731;50.720;6.912;2022-07-23T11:17:58;32.90;99.90
15257;DHT22;7731;50.720;6.912;2022-07-23T11:20:29;32.80;99.90
15257;DHT22;7731;50.720;6.912;2022-07-23T11:22:59;31.10;1.00
15257;DHT22;7731;50.720;6.912;2022-07-23T11:25:34;30.10;1.00
15257;DHT22;7731;50.720;6.912;2022-07-23T11:28:11;29.60;1.00
15257;DHT22;7731;50.720;6.912;2022-07-23T11:30:50;29.40;1.00
15257;DHT22;7731;50.720;6.912;2022-07-23T11:33:21;29.10;1.00
15257;DHT22;7731;50.720;6.912;2022-07-23T11:36:02;28.60;1.00
15257;DHT22;7731;50.720;6.912;2022-07-23T11:38:33;28.60;1.00
15257;DHT22;7731;50.720;6.912;2022-07-23T11:41:12;28.90;1.00
15257;DHT22;7731;50.720;6.912;2022-07-23T11:43:45;28.60;1.00
15257;DHT22;7731;50.720;6.912;2022-07-23T11:46:18;28.60;1.00
15257;DHT22;7731;50.720;6.912;2022-07-23T11:49:01;28.90;1.00
15257;DHT22;7731;50.720;6.912;2022-07-23T11:52:02;28.80;1.00
15257;DHT22;7731;50.720;6.912;2022-07-23T11:54:36;28.80;1.00
15257;DHT22;7731;50.720;6.912;2022-07-23T11:57:17;28.30;1.00
15257;DHT22;7731;50.720;6.912;2022-07-23T11:59:55;28.40;28.40
15257;DHT22;7731;50.720;6.912;2022-07-23T12:02:43;29.00;1.00
15257;DHT22;7731;50.720;6.912;2022-07-23T12:05:18;28.90;1.00
15257;DHT22;7731;50.720;6.912;2022-07-23T12:07:52;28.70;1.00
15257;DHT22;7731;50.720;6.912;2022-07-23T12:10:34;28.70;1.00
15257;DHT22;7731;50.720;6.912;2022-07-23T12:13:14;29.10;1.00
15257;DHT22;7731;50.720;6.912;2022-07-23T12:15:53;29.20;1.00
15257;DHT22;7731;50.720;6.912;2022-07-23T12:18:34;29.50;1.00
15257;DHT22;7731;50.720;6.912;2022-07-23T12:21:08;29.10;1.00
15257;DHT22;7731;50.720;6.912;2022-07-23T12:23:41;29.10;1.00
15257;DHT22;7731;50.720;6.912;2022-07-23T12:26:21;29.00;1.00
15257;DHT22;7731;50.720;6.912;2022-07-23T12:28:53;29.40;1.00
15257;DHT22;7731;50.720;6.912;2022-07-23T12:31:27;29.40;1.00
15257;DHT22;7731;50.720;6.912;2022-07-23T12:34:14;29.60;1.00
15257;DHT22;7731;50.720;6.912;2022-07-23T12:36:48;29.20;1.00
15257;DHT22;7731;50.720;6.912;2022-07-23T12:39:30;29.40;1.00
15257;DHT22;7731;50.720;6.912;2022-07-23T12:42:02;29.50;1.00
15257;DHT22;7731;50.720;6.912;2022-07-23T12:45:02;29.40;1.00
15257;DHT22;7731;50.720;6.912;2022-07-23T12:47:52;29.30;1.00
15257;DHT22;7731;50.720;6.912;2022-07-23T12:50:53;28.90;1.00
15257;DHT22;7731;50.720;6.912;2022-07-23T12:53:33;29.00;1.00
15257;DHT22;7731;50.720;6.912;2022-07-23T12:56:10;28.90;1.00
15257;DHT22;7731;50.720;6.912;2022-07-23T12:58:52;28.70;1.00
15257;DHT22;7731;50.720;6.912;2022-07-23T13:01:26;28.80;1.00
15257;DHT22;7731;50.720;6.912;2022-07-23T13:04:18;28.90;1.00
15257;DHT22;7731;50.720;6.912;2022-07-23T13:06:57;29.10;1.00
15257;DHT22;7731;50.720;6.912;2022-07-23T13:09:32;28.80;1.00
15257;DHT22;7731;50.720;6.912;2022-07-23T13:12:24;29.00;1.00
15257;DHT22;7731;50.720;6.912;2022-07-23T13:14:56;28.60;1.00
15257;DHT22;7731;50.720;6.912;2022-07-23T13:17:34;28.40;1.00
15257;DHT22;7731;50.720;6.912;2022-07-23T13:20:08;28.60;1.00
15257;DHT22;7731;50.720;6.912;2022-07-23T13:22:45;28.80;1.00
15257;DHT22;7731;50.720;6.912;2022-07-23T13:25:15;28.90;1.00
15257;DHT22;7731;50.720;6.912;2022-07-23T13:27:45;29.10;1.00
15257;DHT22;7731;50.720;6.912;2022-07-23T13:30:16;29.40;1.00
15257;DHT22;7731;50.720;6.912;2022-07-23T13:32:50;28.70;1.00
15257;DHT22;7731;50.720;6.912;2022-07-23T13:35:26;28.50;1.00
15257;DHT22;7731;50.720;6.912;2022-07-23T13:38:01;28.30;1.00
15257;DHT22;7731;50.720;6.912;2022-07-23T13:40:33;28.20;1.00
15257;DHT22;7731;50.720;6.912;2022-07-23T13:43:06;28.40;1.00
15257;DHT22;7731;50.720;6.912;2022-07-23T13:45:40;28.40;1.00
15257;DHT22;7731;50.720;6.912;2022-07-23T13:48:14;28.40;1.00
15257;DHT22;7731;50.720;6.912;2022-07-23T13:50:46;28.30;1.00
15257;DHT22;7731;50.720;6.912;2022-07-23T13:53:22;28.50;1.00
15257;DHT22;7731;50.720;6.912;2022-07-23T13:55:53;28.40;1.00
15257;DHT22;7731;50.720;6.912;2022-07-23T13:58:24;28.50;1.00
15257;DHT22;7731;50.720;6.912;2022-07-23T14:00:56;28.40;1.00
15257;DHT22;7731;50.720;6.912;2022-07-23T14:03:28;28.10;1.00
15257;DHT22;7731;50.720;6.912;2022-07-23T14:05:59;28.30;1.00
15257;DHT22;7731;50.720;6.912;2022-07-23T14:08:32;28.30;1.00
15257;DHT22;7731;50.720;6.912;2022-07-23T14:11:03;28.60;1.00
15257;DHT22;7731;50.720;6.912;2022-07-23T14:13:33;28.70;1.00
15257;DHT22;7731;50.720;6.912;2022-07-23T14:16:05;28.60;1.00
15257;DHT22;7731;50.720;6.912;2022-07-23T14:18:35;28.70;1.00
15257;DHT22;7731;50.720;6.912;2022-07-23T14:21:07;28.80;1.00
15257;DHT22;7731;50.720;6.912;2022-07-23T14:23:40;28.70;1.00
15257;DHT22;7731;50.720;6.912;2022-07-23T14:26:10;28.70;1.00
15257;DHT22;7731;50.720;6.912;2022-07-23T14:28:41;28.70;1.00
15257;DHT22;7731;50.720;6.912;2022-07-23T14:31:15;28.50;1.00
15257;DHT22;7731;50.720;6.912;2022-07-23T14:33:47;28.60;1.00
15257;DHT22;7731;50.720;6.912;2022-07-23T14:36:20;28.60;1.00
15257;DHT22;7731;50.720;6.912;2022-07-23T14:38:53;28.50;1.00
15257;DHT22;7731;50.720;6.912;2022-07-23T14:41:23;28.20;1.00
15257;DHT22;7731;50.720;6.912;2022-07-23T14:43:54;28.00;1.00
15257;DHT22;7731;50.720;6.912;2022-07-23T14:46:24;27.90;1.00
15257;DHT22;7731;50.720;6.912;2022-07-23T14:48:55;28.00;1.00
15257;DHT22;7731;50.720;6.912;2022-07-23T14:51:25;28.10;1.00
15257;DHT22;7731;50.720;6.912;2022-07-23T14:53:58;28.30;1.00
15257;DHT22;7731;50.720;6.912;2022-07-23T14:56:29;28.40;1.00
15257;DHT22;7731;50.720;6.912;2022-07-23T14:59:00;28.50;1.00
15257;DHT22;7731;50.720;6.912;2022-07-23T15:01:32;28.80;1.00
15257;DHT22;7731;50.720;6.912;2022-07-23T15:04:03;28.70;1.00
15257;DHT22;7731;50.720;6.912;2022-07-23T15:06:57;28.70;1.00
15257;DHT22;7731;50.720;6.912;2022-07-23T15:09:30;28.70;1.00
15257;DHT22;7731;50.720;6.912;2022-07-23T15:12:02;28.50;1.00
15257;DHT22;7731;50.720;6.912;2022-07-23T15:14:38;28.30;1.00
15257;DHT22;7731;50.720;6.912;2022-07-23T15:17:09;28.30;1.00
15257;DHT22;7731;50.720;6.912;2022-07-23T15:19:41;28.30;1.00
15257;DHT22;7731;50.720;6.912;2022-07-23T15:22:12;28.30;1.00
15257;DHT22;7731;50.720;6.912;2022-07-23T15:24:45;28.00;1.00
15257;DHT22;7731;50.720;6.912;2022-07-23T15:27:16;28.20;1.00
15257;DHT22;7731;50.720;6.912;2022-07-23T15:29:46;28.30;1.00
15257;DHT22;7731;50.720;6.912;2022-07-23T15:32:16;28.50;1.00
15257;DHT22;7731;50.720;6.912;2022-07-23T15:34:47;28.50;1.00
15257;DHT22;7731;50.720;6.912;2022-07-23T15:37:17;28.40;1.00
15257;DHT22;7731;50.720;6.912;2022-07-23T15:39:50;28.40;1.00
15257;DHT22;7731;50.720;6.912;2022-07-23T15:42:21;28.40;1.00
15257;DHT22;7731;50.720;6.912;2022-07-23T15:44:51;28.60;1.00
15257;DHT22;7731;50.720;6.912;2022-07-23T15:47:22;28.60;1.00
15257;DHT22;7731;50.720;6.912;2022-07-23T15:49:53;28.60;1.00
15257;DHT22;7731;50.720;6.912;2022-07-23T15:52:23;28.80;1.00
15257;DHT22;7731;50.720;6.912;2022-07-23T15:54:56;28.60;1.00
15257;DHT22;7731;50.720;6.912;2022-07-23T15:57:26;28.50;1.00
15257;DHT22;7731;50.720;6.912;2022-07-23T15:59:56;28.40;1.00
15257;DHT22;7731;50.720;6.912;2022-07-23T16:02:27;28.20;1.00
15257;DHT22;7731;50.720;6.912;2022-07-23T16:04:57;28.10;1.00
15257;DHT22;7731;50.720;6.912;2022-07-23T16:07:27;27.90;1.00
15257;DHT22;7731;50.720;6.912;2022-07-23T16:10:21;28.00;1.00
15257;DHT22;7731;50.720;6.912;2022-07-23T16:12:52;27.90;1.00
15257;DHT22;7731;50.720;6.912;2022-07-23T16:15:22;27.90;4.90
15257;DHT22;7731;50.720;6.912;2022-07-23T16:17:54;28.10;1.00
15257;DHT22;7731;50.720;6.912;2022-07-23T16:20:24;28.10;1.00
15257;DHT22;7731;50.720;6.912;2022-07-23T16:22:55;28.10;1.00
15257;DHT22;7731;50.720;6.912;2022-07-23T16:25:28;27.90;1.00
15257;DHT22;7731;50.720;6.912;2022-07-23T16:27:58;27.80;1.00
15257;DHT22;7731;50.720;6.912;2022-07-23T16:30:29;27.70;1.00
15257;DHT22;7731;50.720;6.912;2022-07-23T16:33:01;27.70;1.00